| time (UTC) | temp F | wind direction | speed MPH | gust MPH | rain 1hr in | rain 24hr in | rain mn in | humidity % | barometer mb |
| 20260502130505 | 67 | 171 | 2.0 | 5.0 | 0.00 | 0.00 | 0.00 | 55 | 1013.6 |
| 20260502123505 | 66 | 113 | 3.0 | 8.0 | 0.00 | 0.00 | 0.00 | 59 | 1014.1 |
| 20260502123005 | 66 | 154 | 6.0 | 8.0 | 0.00 | 0.00 | 0.00 | 60 | 1014.2 |
| 20260502122505 | 66 | 152 | 0.0 | 8.0 | 0.00 | 0.00 | 0.00 | 60 | 1014.2 |
| 20260502121505 | 65 | 165 | 6.0 | 7.0 | 0.00 | 0.00 | 0.00 | 58 | 1014.3 |
| 20260502121005 | 65 | 167 | 1.0 | 5.0 | 0.00 | 0.00 | 0.00 | 59 | 1014.4 |
| 20260502120506 | 65 | 162 | 2.0 | 5.0 | 0.00 | 0.00 | 0.00 | 60 | 1014.4 |
| 20260502115506 | 66 | 193 | 3.0 | 6.0 | 0.00 | 0.00 | 0.00 | 59 | 1014.6 |
| 20260502115005 | 66 | 167 | 3.0 | 6.0 | 0.00 | 0.00 | 0.00 | 56 | 1014.7 |
| 20260502114505 | 66 | 165 | 0.0 | 5.0 | 0.00 | 0.00 | 0.00 | 59 | 1014.8 |
| 20260502114005 | 65 | 152 | 2.0 | 6.0 | 0.00 | 0.00 | 0.00 | 61 | 1014.9 |
| 20260502113005 | 65 | 192 | 5.0 | 6.0 | 0.00 | 0.00 | 0.00 | 62 | 1015.2 |
| 20260502112505 | 64 | 165 | 4.0 | 7.0 | 0.00 | 0.00 | 0.00 | 61 | 1015.2 |
| 20260502112005 | 64 | 160 | 0.0 | 7.0 | 0.00 | 0.00 | 0.00 | 63 | 1015.1 |
| 20260502111505 | 63 | 192 | 3.0 | 5.0 | 0.00 | 0.00 | 0.00 | 64 | 1015.1 |
| 20260502111005 | 64 | 145 | 2.0 | 4.0 | 0.00 | 0.00 | 0.00 | 63 | 1015.2 |
| 20260502110505 | 64 | 151 | 0.0 | 7.0 | 0.00 | 0.00 | 0.00 | 63 | 1015.2 |
| 20260502105505 | 64 | 159 | 0.0 | 7.0 | 0.00 | 0.00 | 0.00 | 65 | 1015.5 |
| 20260502105005 | 63 | 215 | 1.0 | 7.0 | 0.00 | 0.00 | 0.00 | 66 | 1015.6 |
| 20260502104505 | 63 | 166 | 0.0 | 7.0 | 0.00 | 0.00 | 0.00 | 66 | 1015.7 |
| 20260502104005 | 62 | 166 | 3.0 | 7.0 | 0.00 | 0.00 | 0.00 | 69 | 1015.7 |
| 20260502103505 | 62 | 169 | 0.0 | 5.0 | 0.00 | 0.00 | 0.00 | 68 | 1015.7 |
| 20260502103007 | 62 | 165 | 1.0 | 5.0 | 0.00 | 0.00 | 0.00 | 69 | 1015.8 |
| 20260502102505 | 62 | 219 | 3.0 | 6.0 | 0.00 | 0.00 | 0.00 | 72 | 1015.9 |
| 20260502102005 | 61 | 166 | 0.0 | 6.0 | 0.00 | 0.00 | 0.00 | 70 | 1015.9 |
| 20260502101005 | 60 | 160 | 1.0 | 6.0 | 0.00 | 0.00 | 0.00 | 69 | 1016.1 |
| 20260502091505 | 56 | 167 | 3.0 | 4.0 | 0.00 | 0.00 | 0.00 | 78 | 1016.5 |
| 20260502091005 | 55 | 190 | 0.0 | 3.0 | 0.00 | 0.00 | 0.00 | 78 | 1016.4 |
| 20260502090505 | 55 | 183 | 0.0 | 5.0 | 0.00 | 0.00 | 0.00 | 79 | 1016.5 |
| 20260502071505 | 48 | 282 | 1.0 | 2.0 | 0.00 | 0.00 | 0.00 | 93 | 1017.3 |
| 20260502071005 | 48 | 282 | 1.0 | 1.0 | 0.00 | 0.00 | 0.00 | 93 | 1017.3 |
| 20260502070505 | 48 | 282 | 0.0 | 0.0 | 0.00 | 0.00 | 0.00 | 92 | 1017.2 |
| 20260502070005 | 48 | 282 | 0.0 | 2.0 | 0.00 | 0.00 | 0.00 | 92 | 1017.2 |
| 20260502065505 | 48 | 282 | 0.0 | 2.0 | 0.00 | 0.00 | 0.00 | 92 | 1017.3 |
| 20260502065005 | 48 | 282 | 1.0 | 2.0 | 0.00 | 0.00 | 0.00 | 92 | 1017.3 |
| 20260502064505 | 47 | 286 | 1.0 | 2.0 | 0.00 | 0.00 | 0.00 | 92 | 1017.3 |
| 20260502064005 | 47 | 286 | 1.0 | 2.0 | 0.00 | 0.00 | 0.00 | 92 | 1017.4 |
| 20260502063505 | 47 | 287 | 0.0 | 1.0 | 0.00 | 0.00 | 0.00 | 92 | 1017.4 |
| 20260502063005 | 47 | 317 | 0.0 | 3.0 | 0.00 | 0.00 | 0.00 | 92 | 1017.4 |
| 20260502062505 | 47 | 53 | 0.0 | 3.0 | 0.00 | 0.00 | 0.00 | 92 | 1017.4 |
| 20260502061505 | 47 | 53 | 0.0 | 0.0 | 0.00 | 0.00 | 0.00 | 92 | 1017.2 |
| 20260502061005 | 47 | 53 | 0.0 | 2.0 | 0.00 | 0.00 | 0.00 | 92 | 1017.2 |
| 20260502060505 | 47 | 53 | 0.0 | 2.0 | 0.00 | 0.00 | 0.00 | 92 | 1017.3 |
| 20260502060005 | 47 | 53 | 0.0 | 1.0 | 0.00 | 0.00 | 0.00 | 92 | 1017.3 |
| 20260502055005 | 47 | 52 | 0.0 | 1.0 | 0.00 | 0.00 | 0.00 | 92 | 1017.3 |
| 20260502054505 | 46 | 56 | 0.0 | 0.0 | 0.00 | 0.00 | 0.00 | 92 | 1017.4 |
| 20260502054005 | 46 | 56 | 0.0 | 0.0 | 0.00 | 0.00 | 0.00 | 92 | 1017.3 |
| 20260502053505 | 46 | 56 | 0.0 | 0.0 | 0.00 | 0.00 | 0.00 | 92 | 1017.3 |
| 20260502053005 | 46 | 56 | 0.0 | 0.0 | 0.00 | 0.00 | 0.00 | 92 | 1017.3 |
| 20260502052505 | 46 | 56 | 0.0 | 1.0 | 0.00 | 0.00 | 0.00 | 92 | 1017.3 |
| 20260502051505 | 46 | 205 | 0.0 | 3.0 | 0.00 | 0.00 | 0.00 | 91 | 1017.2 |
| 20260502050505 | 46 | 205 | 0.0 | 1.0 | 0.00 | 0.00 | 0.00 | 91 | 1017.1 |
| 20260502050005 | 46 | 205 | 0.0 | 1.0 | 0.00 | 0.00 | 0.00 | 91 | 1017.3 |
| 20260502045505 | 46 | 205 | 0.0 | 1.0 | 0.00 | 0.00 | 0.00 | 91 | 1017.2 |
| 20260502045005 | 46 | 205 | 0.0 | 0.0 | 0.00 | 0.00 | 0.00 | 91 | 1017.2 |
| 20260502044005 | 46 | 205 | 0.0 | 0.0 | 0.00 | 0.00 | 0.00 | 91 | 1017.2 |
| 20260502043505 | 46 | 205 | 0.0 | 0.0 | 0.00 | 0.00 | 0.00 | 91 | 1017.2 |
| 20260502043005 | 46 | 205 | 0.0 | 0.0 | 0.00 | 0.00 | 0.00 | 91 | 1017.2 |
| 20260502042505 | 46 | 201 | 0.0 | 0.0 | 0.00 | 0.00 | 0.00 | 91 | 1017.1 |
| 20260502041505 | 46 | 229 | 0.0 | 2.0 | 0.00 | 0.00 | 0.00 | 91 | 1017.2 |
| 20260502041005 | 46 | 229 | 0.0 | 3.0 | 0.00 | 0.00 | 0.00 | 91 | 1017.2 |
| 20260502040505 | 45 | 229 | 1.0 | 4.0 | 0.00 | 0.00 | 0.00 | 91 | 1017.3 |
| 20260502040005 | 45 | 229 | 2.0 | 4.0 | 0.00 | 0.00 | 0.00 | 91 | 1017.3 |
| 20260502035505 | 45 | 219 | 0.0 | 4.0 | 0.00 | 0.00 | 0.00 | 91 | 1017.4 |
| 20260502034505 | 45 | 220 | 0.0 | 3.0 | 0.00 | 0.00 | 0.00 | 90 | 1017.4 |
| 20260502034005 | 45 | 220 | 2.0 | 3.0 | 0.00 | 0.00 | 0.00 | 90 | 1017.4 |
| 20260502033505 | 45 | 226 | 1.0 | 3.0 | 0.00 | 0.00 | 0.00 | 90 | 1017.5 |
| 20260502032505 | 45 | 226 | 0.0 | 3.0 | 0.00 | 0.00 | 0.00 | 90 | 1017.5 |
| 20260502032005 | 45 | 226 | 0.0 | 3.0 | 0.00 | 0.00 | 0.00 | 90 | 1017.5 |
| 20260502031504 | 45 | 226 | 3.0 | 3.0 | 0.00 | 0.00 | 0.00 | 90 | 1017.6 |
| 20260502031005 | 45 | 226 | 0.0 | 0.0 | 0.00 | 0.00 | 0.00 | 90 | 1017.6 |
| 20260502025505 | 45 | 226 | 0.0 | 0.0 | 0.00 | 0.00 | 0.00 | 90 | 1017.6 |
| 20260502025005 | 46 | 226 | 0.0 | 0.0 | 0.00 | 0.00 | 0.00 | 90 | 1017.5 |
| 20260502024504 | 46 | 226 | 0.0 | 0.0 | 0.00 | 0.00 | 0.00 | 90 | 1017.5 |
| 20260502024005 | 46 | 226 | 0.0 | 0.0 | 0.00 | 0.00 | 0.00 | 90 | 1017.6 |
| 20260502023505 | 46 | 226 | 0.0 | 0.0 | 0.00 | 0.00 | 0.00 | 90 | 1017.6 |
| 20260502023004 | 46 | 226 | 0.0 | 0.0 | 0.00 | 0.00 | 0.00 | 90 | 1017.6 |
| 20260502022504 | 46 | 226 | 0.0 | 0.0 | 0.00 | 0.00 | 0.00 | 90 | 1017.7 |
| 20260502022005 | 46 | 226 | 0.0 | 0.0 | 0.00 | 0.00 | 0.00 | 90 | 1017.7 |
| 20260502021505 | 46 | 226 | 0.0 | 0.0 | 0.00 | 0.00 | 0.00 | 90 | 1017.7 |
| 20260502021004 | 47 | 226 | 0.0 | 0.0 | 0.00 | 0.00 | 0.00 | 90 | 1017.8 |
| 20260502015505 | 47 | 226 | 0.0 | 0.0 | 0.00 | 0.00 | 0.00 | 90 | 1017.9 |
| 20260502015004 | 47 | 226 | 0.0 | 0.0 | 0.00 | 0.00 | 0.00 | 90 | 1017.9 |
| 20260502014504 | 47 | 226 | 0.0 | 0.0 | 0.00 | 0.00 | 0.00 | 90 | 1017.9 |
| 20260502014005 | 47 | 226 | 0.0 | 0.0 | 0.00 | 0.00 | 0.00 | 90 | 1017.9 |
| 20260502013505 | 48 | 226 | 0.0 | 0.0 | 0.00 | 0.00 | 0.00 | 90 | 1017.9 |
| 20260502013005 | 48 | 226 | 0.0 | 0.0 | 0.00 | 0.00 | 0.00 | 90 | 1017.9 |
| 20260502012004 | 48 | 226 | 0.0 | 0.0 | 0.00 | 0.00 | 0.00 | 90 | 1017.9 |
| 20260502011504 | 48 | 226 | 0.0 | 0.0 | 0.00 | 0.00 | 0.00 | 90 | 1018.0 |
| 20260502011004 | 49 | 226 | 0.0 | 0.0 | 0.00 | 0.00 | 0.00 | 90 | 1018.0 |
| 20260502010005 | 49 | 226 | 0.0 | 0.0 | 0.00 | 0.00 | 0.00 | 90 | 1018.1 |
| 20260502005504 | 49 | 226 | 0.0 | 0.0 | 0.00 | 0.00 | 0.00 | 90 | 1018.1 |
| 20260502004504 | 49 | 226 | 0.0 | 0.0 | 0.00 | 0.00 | 0.00 | 91 | 1018.2 |
| 20260502004005 | 49 | 226 | 0.0 | 0.0 | 0.00 | 0.00 | 0.00 | 91 | 1018.3 |
| 20260502003005 | 50 | 226 | 0.0 | 0.0 | 0.00 | 0.00 | 0.00 | 91 | 1018.4 |
| 20260502002505 | 50 | 226 | 0.0 | 0.0 | 0.00 | 0.00 | 0.00 | 91 | 1018.4 |
| 20260502002005 | 50 | 226 | 0.0 | 0.0 | 0.00 | 0.00 | 0.00 | 91 | 1018.4 |
| 20260502001505 | 50 | 226 | 0.0 | 0.0 | 0.00 | 0.00 | 0.00 | 91 | 1018.6 |
| 20260502001005 | 50 | 226 | 0.0 | 0.0 | 0.00 | 0.00 | 0.00 | 91 | 1018.6 |
| 20260502000504 | 50 | 226 | 0.0 | 0.0 | 0.00 | 0.00 | 0.00 | 91 | 1018.6 |
| 20260501235504 | 50 | 226 | 0.0 | 0.0 | 0.00 | 0.00 | 0.00 | 91 | 1018.7 |
| 20260501235004 | 50 | 226 | 0.0 | 0.0 | 0.00 | 0.00 | 0.00 | 91 | 1018.7 |
| 20260501234504 | 50 | 226 | 0.0 | 0.0 | 0.00 | 0.00 | 0.00 | 90 | 1018.8 |
| 20260501234004 | 50 | 226 | 0.0 | 0.0 | 0.00 | 0.00 | 0.00 | 90 | 1018.8 |
| 20260501233504 | 50 | 226 | 0.0 | 0.0 | 0.00 | 0.00 | 0.00 | 90 | 1018.8 |
| 20260501233004 | 50 | 226 | 0.0 | 0.0 | 0.00 | 0.00 | 0.00 | 90 | 1018.8 |
| 20260501232504 | 51 | 226 | 0.0 | 1.0 | 0.00 | 0.00 | 0.00 | 89 | 1018.8 |
| 20260501232004 | 51 | 226 | 0.0 | 2.0 | 0.00 | 0.00 | 0.00 | 89 | 1018.8 |
| 20260501231505 | 51 | 226 | 0.0 | 2.0 | 0.00 | 0.00 | 0.00 | 89 | 1018.8 |
| 20260501231005 | 52 | 225 | 0.0 | 3.0 | 0.00 | 0.00 | 0.00 | 88 | 1018.8 |
| 20260501230504 | 52 | 227 | 1.0 | 3.0 | 0.00 | 0.00 | 0.00 | 88 | 1018.9 |
| 20260501225505 | 52 | 227 | 1.0 | 3.0 | 0.00 | 0.00 | 0.00 | 88 | 1018.9 |
| 20260501225004 | 52 | 227 | 1.0 | 3.0 | 0.00 | 0.00 | 0.00 | 87 | 1018.8 |
| 20260501224005 | 52 | 232 | 0.0 | 2.0 | 0.00 | 0.00 | 0.00 | 87 | 1018.8 |
| 20260501223504 | 52 | 232 | 2.0 | 2.0 | 0.00 | 0.00 | 0.00 | 86 | 1018.7 |
| 20260501223004 | 52 | 232 | 0.0 | 1.0 | 0.00 | 0.00 | 0.00 | 86 | 1018.6 |
| 20260501222504 | 53 | 232 | 0.0 | 3.0 | 0.00 | 0.00 | 0.00 | 86 | 1018.7 |
| 20260501221504 | 53 | 232 | 0.0 | 5.0 | 0.00 | 0.00 | 0.00 | 85 | 1018.7 |
| 20260501221004 | 53 | 232 | 3.0 | 5.0 | 0.00 | 0.00 | 0.00 | 84 | 1018.7 |
| 20260501220505 | 53 | 232 | 1.0 | 6.0 | 0.00 | 0.00 | 0.00 | 83 | 1018.8 |
| 20260501220004 | 54 | 226 | 1.0 | 6.0 | 0.00 | 0.00 | 0.00 | 83 | 1018.8 |
| 20260501215505 | 54 | 215 | 4.0 | 5.0 | 0.00 | 0.00 | 0.00 | 83 | 1018.9 |
| 20260501215004 | 54 | 228 | 2.0 | 5.0 | 0.00 | 0.00 | 0.00 | 82 | 1018.9 |
| 20260501214004 | 54 | 205 | 2.0 | 5.0 | 0.00 | 0.00 | 0.00 | 82 | 1018.8 |
| 20260501213505 | 55 | 196 | 2.0 | 5.0 | 0.00 | 0.00 | 0.00 | 82 | 1018.8 |
| 20260501213004 | 55 | 231 | 0.0 | 2.0 | 0.00 | 0.00 | 0.00 | 82 | 1018.8 |
| 20260501212504 | 55 | 232 | 1.0 | 3.0 | 0.00 | 0.00 | 0.00 | 81 | 1018.8 |
| 20260501212005 | 56 | 232 | 0.0 | 4.0 | 0.00 | 0.00 | 0.00 | 80 | 1018.6 |
| 20260501211504 | 56 | 232 | 0.0 | 6.0 | 0.00 | 0.00 | 0.00 | 80 | 1018.6 |
| 20260501211004 | 56 | 229 | 1.0 | 6.0 | 0.00 | 0.00 | 0.00 | 80 | 1018.5 |
| 20260501210505 | 56 | 234 | 2.0 | 6.0 | 0.00 | 0.00 | 0.00 | 80 | 1018.5 |
| 20260501210004 | 57 | 207 | 1.0 | 4.0 | 0.00 | 0.00 | 0.00 | 80 | 1018.5 |
| 20260501205504 | 57 | 219 | 1.0 | 4.0 | 0.00 | 0.00 | 0.00 | 80 | 1018.5 |
| 20260501205004 | 57 | 209 | 1.0 | 3.0 | 0.00 | 0.00 | 0.00 | 80 | 1018.5 |
| 20260501204505 | 57 | 209 | 1.0 | 4.0 | 0.00 | 0.00 | 0.00 | 80 | 1018.5 |
| 20260501204004 | 57 | 211 | 0.0 | 4.0 | 0.00 | 0.00 | 0.00 | 80 | 1018.5 |
| 20260501202504 | 58 | 212 | 2.0 | 4.0 | 0.00 | 0.00 | 0.00 | 80 | 1018.5 |
| 20260501201504 | 59 | 211 | 3.0 | 6.0 | 0.00 | 0.00 | 0.00 | 79 | 1018.5 |
| 20260501201004 | 59 | 215 | 3.0 | 6.0 | 0.00 | 0.00 | 0.00 | 79 | 1018.5 |
| 20260501200504 | 59 | 239 | 1.0 | 4.0 | 0.00 | 0.00 | 0.00 | 80 | 1018.4 |
| 20260501200005 | 59 | 240 | 3.0 | 4.0 | 0.00 | 0.00 | 0.00 | 80 | 1018.5 |
| 20260501195504 | 59 | 242 | 2.0 | 4.0 | 0.00 | 0.00 | 0.00 | 79 | 1018.3 |
| 20260501195004 | 59 | 254 | 1.0 | 4.0 | 0.00 | 0.00 | 0.00 | 79 | 1018.3 |
| 20260501194504 | 59 | 227 | 2.0 | 3.0 | 0.00 | 0.00 | 0.00 | 78 | 1018.2 |
| 20260501194004 | 60 | 211 | 2.0 | 4.0 | 0.00 | 0.00 | 0.00 | 77 | 1018.2 |
| 20260501193504 | 60 | 208 | 1.0 | 4.0 | 0.00 | 0.00 | 0.00 | 77 | 1018.2 |
| 20260501193004 | 60 | 209 | 0.0 | 4.0 | 0.00 | 0.00 | 0.00 | 76 | 1018.1 |
| 20260501192504 | 60 | 208 | 1.0 | 4.0 | 0.00 | 0.00 | 0.00 | 76 | 1018.1 |
| 20260501192004 | 61 | 208 | 1.0 | 4.0 | 0.00 | 0.00 | 0.00 | 75 | 1018.1 |
| 20260501191004 | 61 | 212 | 1.0 | 4.0 | 0.00 | 0.00 | 0.00 | 73 | 1018.1 |
| 20260501190504 | 61 | 214 | 3.0 | 5.0 | 0.00 | 0.00 | 0.00 | 72 | 1018.1 |
| 20260501190004 | 62 | 225 | 1.0 | 5.0 | 0.00 | 0.00 | 0.00 | 71 | 1018.0 |
| 20260501185504 | 62 | 227 | 3.0 | 5.0 | 0.00 | 0.00 | 0.00 | 71 | 1017.8 |
| 20260501185004 | 62 | 241 | 3.0 | 6.0 | 0.00 | 0.00 | 0.00 | 71 | 1017.8 |
| 20260501184504 | 62 | 226 | 2.0 | 8.0 | 0.00 | 0.00 | 0.00 | 70 | 1017.8 |
| 20260501184004 | 62 | 226 | 4.0 | 8.0 | 0.00 | 0.00 | 0.00 | 70 | 1017.8 |
| 20260501183504 | 63 | 239 | 4.0 | 8.0 | 0.00 | 0.00 | 0.00 | 70 | 1017.8 |
| 20260501183004 | 63 | 188 | 0.0 | 7.0 | 0.00 | 0.00 | 0.00 | 70 | 1017.8 |
| 20260501182004 | 63 | 211 | 3.0 | 8.0 | 0.00 | 0.00 | 0.00 | 69 | 1017.8 |
| 20260501181504 | 64 | 207 | 3.0 | 8.0 | 0.00 | 0.00 | 0.00 | 69 | 1017.8 |
| 20260501181004 | 64 | 210 | 4.0 | 8.0 | 0.00 | 0.00 | 0.00 | 69 | 1017.8 |
| 20260501180504 | 64 | 188 | 4.0 | 10.0 | 0.00 | 0.00 | 0.00 | 69 | 1017.8 |
| 20260501180004 | 64 | 178 | 4.0 | 10.0 | 0.00 | 0.00 | 0.00 | 70 | 1017.8 |
| 20260501175504 | 64 | 204 | 6.0 | 8.0 | 0.00 | 0.00 | 0.00 | 70 | 1017.8 |
| 20260501175004 | 65 | 209 | 3.0 | 10.0 | 0.00 | 0.00 | 0.00 | 70 | 1017.9 |
| 20260501174004 | 65 | 241 | 6.0 | 10.0 | 0.00 | 0.00 | 0.00 | 70 | 1017.8 |
| 20260501173504 | 65 | 159 | 5.0 | 13.0 | 0.00 | 0.00 | 0.00 | 70 | 1017.7 |
| 20260501173004 | 66 | 204 | 9.0 | 13.0 | 0.00 | 0.00 | 0.00 | 70 | 1017.7 |
| 20260501172504 | 66 | 196 | 5.0 | 13.0 | 0.00 | 0.00 | 0.00 | 71 | 1017.8 |
| 20260501172004 | 66 | 255 | 5.0 | 13.0 | 0.00 | 0.00 | 0.00 | 71 | 1017.8 |
| 20260501170504 | 67 | 166 | 6.0 | 12.0 | 0.00 | 0.00 | 0.00 | 69 | 1017.8 |
| 20260501170005 | 67 | 192 | 7.0 | 13.0 | 0.00 | 0.00 | 0.00 | 70 | 1017.8 |
| 20260501165504 | 67 | 267 | 7.0 | 13.0 | 0.00 | 0.00 | 0.00 | 69 | 1017.7 |
| 20260501165004 | 68 | 190 | 13.0 | 13.0 | 0.00 | 0.00 | 0.00 | 68 | 1017.7 |
| 20260501163504 | 67 | 242 | 8.0 | 10.0 | 0.00 | 0.00 | 0.00 | 70 | 1017.7 |
| 20260501163004 | 67 | 227 | 4.0 | 12.0 | 0.00 | 0.00 | 0.00 | 71 | 1017.8 |
| 20260501162504 | 67 | 236 | 10.0 | 13.0 | 0.00 | 0.00 | 0.00 | 71 | 1017.8 |
| 20260501162004 | 67 | 266 | 7.0 | 13.0 | 0.00 | 0.00 | 0.00 | 70 | 1017.8 |
| 20260501161004 | 67 | 223 | 5.0 | 14.0 | 0.00 | 0.00 | 0.00 | 71 | 1017.9 |
| 20260501160504 | 67 | 227 | 9.0 | 14.0 | 0.00 | 0.00 | 0.00 | 70 | 1018.0 |
| 20260501160004 | 67 | 200 | 5.0 | 15.0 | 0.00 | 0.00 | 0.00 | 71 | 1018.0 |
| 20260501155504 | 67 | 213 | 7.0 | 15.0 | 0.00 | 0.00 | 0.00 | 71 | 1018.0 |
| 20260501155004 | 67 | 213 | 9.0 | 14.0 | 0.00 | 0.00 | 0.00 | 70 | 1018.0 |
| 20260501154504 | 68 | 236 | 9.0 | 14.0 | 0.00 | 0.00 | 0.00 | 70 | 1018.0 |
| 20260501154004 | 68 | 198 | 8.0 | 14.0 | 0.00 | 0.00 | 0.00 | 70 | 1018.0 |
| 20260501153504 | 68 | 192 | 5.0 | 13.0 | 0.00 | 0.00 | 0.00 | 70 | 1018.0 |
| 20260501153004 | 68 | 230 | 8.0 | 12.0 | 0.00 | 0.00 | 0.00 | 69 | 1018.0 |
| 20260501152504 | 69 | 217 | 9.0 | 13.0 | 0.00 | 0.00 | 0.00 | 69 | 1018.0 |
| 20260501152004 | 70 | 255 | 5.0 | 13.0 | 0.00 | 0.00 | 0.00 | 68 | 1018.0 |
| 20260501151004 | 71 | 228 | 4.0 | 15.0 | 0.00 | 0.00 | 0.00 | 65 | 1018.0 |
| 20260501150504 | 71 | 219 | 7.0 | 15.0 | 0.00 | 0.00 | 0.00 | 65 | 1018.1 |